Weather at Bartell Strip [CLOSED]

Public forecast

Using degrees Fahrenheit for public forecast. Weather courtesy of forecast.io.

Closest aviation weather report (METAR) to Bartell Strip

Closest report is Waukesha County Airport, 8.2 nm (15.1 km) NE. Retrieved 2021/06/13 15:45 UTC (50 minutes ago):

KUES 131545Z 28007KT 10SM CLR 27/11 A3003

Closest aviation forecast (TAF) to Bartell Strip

Closest forecast is Waukesha County Airport, 8.2 nm (15.1 km) NE. Retrieved 2021/06/13 12:22 UTC (4 hours ago):

TAF KUES 131120Z 1312/1412 33003KT P6SM SKC FM131600 33007KT P6SM SKC FM140200 22003KT P6SM FEW150 FM140800 03007KT P6SM SCT180